SCIE/CCP METAR and TAF weather

Enter ICAO airport designator
Station Type Date Time Source
SCIE METAR 2022/06/27 08:00 UTC NOAA

SCIE 270800Z 03004KT 9999 FEW013 SCT021 BKN056 10/10 Q1018


Station Type Date Time Source
SCIE Decoded METAR 2022/06/27 08:00 UTC NOAA

Concepcion, Chile (SCIE) 36-46S 073-03W
Jun 27, 2022 - 04:00 AM EDT / 2022.06.27 0800 UTC
Wind: from the NNE (030 degrees) at 5 MPH (4 KT):0
Visibility: greater than 7 mile(s):0
Sky conditions: mostly cloudy
Temperature: 50 F (10 C)
Dew Point: 50 F (10 C)
Relative Humidity: 100%
Pressure (altimeter): 30.06 in. Hg (1018 hPa)
ob: SCIE 270800Z 03004KT 9999 FEW013 SCT021 BKN056 10/10 Q1018
cycle: 8

Station Type Date Time Source
SCIE TAF 2022/06/27 06:03 UTC NOAA

TAF SCIE 270400Z 2706/2806 02006KT 9999 BKN015 OVC035 TX11/2718Z TN09/2710Z
TEMPO 2710/2715 06005KT 5000 SHRA BKN012 OVC020
BECMG 2718/2720 35010KT 8000 -SHRA BKN020 BKN050
BECMG 2800/2802 01015KT BKN015 OVC020

Example: see airport list